sensor_id;sensor_type;location;lat;lon;timestamp;temperature;humidity
13673;DHT22;6909;52.202;9.876;2022-10-28T00:00:25;16.70;99.90
13673;DHT22;6909;52.202;9.876;2022-10-28T00:02:51;16.60;99.90
13673;DHT22;6909;52.202;9.876;2022-10-28T00:05:19;16.50;99.90
13673;DHT22;6909;52.202;9.876;2022-10-28T00:07:46;16.30;99.90
13673;DHT22;6909;52.202;9.876;2022-10-28T00:10:13;16.30;99.90
13673;DHT22;6909;52.202;9.876;2022-10-28T00:12:40;16.20;99.90
13673;DHT22;6909;52.202;9.876;2022-10-28T00:15:07;16.40;99.90
13673;DHT22;6909;52.202;9.876;2022-10-28T00:17:34;16.70;99.90
13673;DHT22;6909;52.202;9.876;2022-10-28T00:20:00;16.70;99.90
13673;DHT22;6909;52.202;9.876;2022-10-28T00:22:28;16.70;99.90
13673;DHT22;6909;52.202;9.876;2022-10-28T00:24:55;16.70;99.90
13673;DHT22;6909;52.202;9.876;2022-10-28T00:27:22;16.80;99.90
13673;DHT22;6909;52.202;9.876;2022-10-28T00:29:48;16.80;99.90
13673;DHT22;6909;52.202;9.876;2022-10-28T00:32:15;16.70;99.90
13673;DHT22;6909;52.202;9.876;2022-10-28T00:34:42;16.80;99.90
13673;DHT22;6909;52.202;9.876;2022-10-28T00:37:08;16.80;99.90
13673;DHT22;6909;52.202;9.876;2022-10-28T00:39:36;16.80;99.90
13673;DHT22;6909;52.202;9.876;2022-10-28T00:42:03;16.80;99.90
13673;DHT22;6909;52.202;9.876;2022-10-28T00:47:44;16.90;99.90
13673;DHT22;6909;52.202;9.876;2022-10-28T00:50:28;16.90;99.90
13673;DHT22;6909;52.202;9.876;2022-10-28T00:53:00;16.80;99.90
13673;DHT22;6909;52.202;9.876;2022-10-28T00:55:31;16.70;99.90
13673;DHT22;6909;52.202;9.876;2022-10-28T00:57:58;16.80;99.90
13673;DHT22;6909;52.202;9.876;2022-10-28T01:00:26;16.80;99.90
13673;DHT22;6909;52.202;9.876;2022-10-28T01:02:54;16.70;99.90
13673;DHT22;6909;52.202;9.876;2022-10-28T01:05:24;16.80;99.90
13673;DHT22;6909;52.202;9.876;2022-10-28T01:07:55;16.80;99.90
13673;DHT22;6909;52.202;9.876;2022-10-28T01:10:25;16.80;99.90
13673;DHT22;6909;52.202;9.876;2022-10-28T01:13:02;16.70;99.90
13673;DHT22;6909;52.202;9.876;2022-10-28T01:15:36;16.70;99.90
13673;DHT22;6909;52.202;9.876;2022-10-28T01:18:15;16.60;99.90
13673;DHT22;6909;52.202;9.876;2022-10-28T01:21:00;16.70;99.90
13673;DHT22;6909;52.202;9.876;2022-10-28T01:23:34;16.70;99.90
13673;DHT22;6909;52.202;9.876;2022-10-28T01:26:28;16.70;99.90
13673;DHT22;6909;52.202;9.876;2022-10-28T01:31:53;16.60;99.90
13673;DHT22;6909;52.202;9.876;2022-10-28T01:34:28;16.50;99.90
13673;DHT22;6909;52.202;9.876;2022-10-28T01:36:59;16.40;99.90
13673;DHT22;6909;52.202;9.876;2022-10-28T01:39:32;16.30;99.90
13673;DHT22;6909;52.202;9.876;2022-10-28T01:42:07;16.20;99.90
13673;DHT22;6909;52.202;9.876;2022-10-28T01:44:44;16.10;99.90
13673;DHT22;6909;52.202;9.876;2022-10-28T01:47:15;16.00;99.90
13673;DHT22;6909;52.202;9.876;2022-10-28T01:49:48;15.80;99.90
13673;DHT22;6909;52.202;9.876;2022-10-28T01:52:19;15.70;99.90
13673;DHT22;6909;52.202;9.876;2022-10-28T01:54:51;15.60;99.90
13673;DHT22;6909;52.202;9.876;2022-10-28T01:57:20;15.60;99.90
13673;DHT22;6909;52.202;9.876;2022-10-28T01:59:48;15.60;99.90
13673;DHT22;6909;52.202;9.876;2022-10-28T02:02:17;15.70;99.90
13673;DHT22;6909;52.202;9.876;2022-10-28T02:04:44;15.80;99.90
13673;DHT22;6909;52.202;9.876;2022-10-28T02:07:11;15.90;99.90
13673;DHT22;6909;52.202;9.876;2022-10-28T02:09:50;16.10;99.90
13673;DHT22;6909;52.202;9.876;2022-10-28T02:12:25;16.10;99.90
13673;DHT22;6909;52.202;9.876;2022-10-28T02:15:18;16.00;99.90
13673;DHT22;6909;52.202;9.876;2022-10-28T02:18:15;16.00;99.90
13673;DHT22;6909;52.202;9.876;2022-10-28T02:20:50;15.80;99.90
13673;DHT22;6909;52.202;9.876;2022-10-28T02:23:25;15.50;99.90
13673;DHT22;6909;52.202;9.876;2022-10-28T02:25:56;15.50;99.90
13673;DHT22;6909;52.202;9.876;2022-10-28T02:28:33;15.30;99.90
13673;DHT22;6909;52.202;9.876;2022-10-28T02:31:08;14.90;99.90
13673;DHT22;6909;52.202;9.876;2022-10-28T02:33:38;14.90;99.90
13673;DHT22;6909;52.202;9.876;2022-10-28T02:36:10;15.00;99.90
13673;DHT22;6909;52.202;9.876;2022-10-28T02:38:41;15.00;99.90
13673;DHT22;6909;52.202;9.876;2022-10-28T02:41:13;15.00;99.90
13673;DHT22;6909;52.202;9.876;2022-10-28T02:43:42;15.00;99.90
13673;DHT22;6909;52.202;9.876;2022-10-28T02:46:11;15.00;99.90
13673;DHT22;6909;52.202;9.876;2022-10-28T02:48:43;14.90;99.90
13673;DHT22;6909;52.202;9.876;2022-10-28T02:51:15;14.80;99.90
13673;DHT22;6909;52.202;9.876;2022-10-28T02:53:50;14.90;99.90
13673;DHT22;6909;52.202;9.876;2022-10-28T02:56:20;15.50;99.90
13673;DHT22;6909;52.202;9.876;2022-10-28T02:58:47;15.90;99.90
13673;DHT22;6909;52.202;9.876;2022-10-28T03:01:14;16.10;99.90
13673;DHT22;6909;52.202;9.876;2022-10-28T03:03:42;16.30;99.90
13673;DHT22;6909;52.202;9.876;2022-10-28T03:06:09;16.60;99.90
13673;DHT22;6909;52.202;9.876;2022-10-28T03:08:36;16.80;99.90
13673;DHT22;6909;52.202;9.876;2022-10-28T03:11:03;16.90;99.90
13673;DHT22;6909;52.202;9.876;2022-10-28T03:13:29;17.00;99.90
13673;DHT22;6909;52.202;9.876;2022-10-28T03:15:56;17.00;99.90
13673;DHT22;6909;52.202;9.876;2022-10-28T03:18:23;17.00;99.90
13673;DHT22;6909;52.202;9.876;2022-10-28T03:20:51;17.00;99.90
13673;DHT22;6909;52.202;9.876;2022-10-28T03:23:17;17.00;99.90
13673;DHT22;6909;52.202;9.876;2022-10-28T03:25:44;17.00;99.90
13673;DHT22;6909;52.202;9.876;2022-10-28T03:28:11;17.00;99.90
13673;DHT22;6909;52.202;9.876;2022-10-28T03:30:37;17.00;99.90
13673;DHT22;6909;52.202;9.876;2022-10-28T03:33:04;17.20;99.90
13673;DHT22;6909;52.202;9.876;2022-10-28T03:35:31;17.10;99.90
13673;DHT22;6909;52.202;9.876;2022-10-28T03:37:59;17.20;99.90
13673;DHT22;6909;52.202;9.876;2022-10-28T03:40:25;17.10;99.90
13673;DHT22;6909;52.202;9.876;2022-10-28T03:42:52;16.90;99.90
13673;DHT22;6909;52.202;9.876;2022-10-28T03:45:19;16.80;99.90
13673;DHT22;6909;52.202;9.876;2022-10-28T03:47:45;16.90;99.90
13673;DHT22;6909;52.202;9.876;2022-10-28T03:50:12;16.90;99.90
13673;DHT22;6909;52.202;9.876;2022-10-28T03:52:40;16.70;99.90
13673;DHT22;6909;52.202;9.876;2022-10-28T03:55:09;16.70;99.90
13673;DHT22;6909;52.202;9.876;2022-10-28T03:57:35;16.80;99.90
13673;DHT22;6909;52.202;9.876;2022-10-28T04:00:02;16.70;99.90
13673;DHT22;6909;52.202;9.876;2022-10-28T04:02:29;16.60;99.90
13673;DHT22;6909;52.202;9.876;2022-10-28T04:04:59;16.60;99.90
13673;DHT22;6909;52.202;9.876;2022-10-28T04:07:26;16.50;99.90
13673;DHT22;6909;52.202;9.876;2022-10-28T04:09:52;16.40;99.90
13673;DHT22;6909;52.202;9.876;2022-10-28T04:12:20;16.30;99.90
13673;DHT22;6909;52.202;9.876;2022-10-28T04:14:47;16.20;99.90
13673;DHT22;6909;52.202;9.876;2022-10-28T04:17:14;16.00;99.90
13673;DHT22;6909;52.202;9.876;2022-10-28T04:19:41;15.90;99.90
13673;DHT22;6909;52.202;9.876;2022-10-28T04:22:08;15.80;99.90
13673;DHT22;6909;52.202;9.876;2022-10-28T04:24:34;16.00;99.90
13673;DHT22;6909;52.202;9.876;2022-10-28T04:27:01;16.20;99.90
13673;DHT22;6909;52.202;9.876;2022-10-28T04:29:30;16.40;99.90
13673;DHT22;6909;52.202;9.876;2022-10-28T04:31:57;16.60;99.90
13673;DHT22;6909;52.202;9.876;2022-10-28T04:34:24;16.70;99.90
13673;DHT22;6909;52.202;9.876;2022-10-28T04:36:51;16.90;99.90
13673;DHT22;6909;52.202;9.876;2022-10-28T04:39:18;17.20;99.90
13673;DHT22;6909;52.202;9.876;2022-10-28T04:41:45;17.20;99.90
13673;DHT22;6909;52.202;9.876;2022-10-28T04:44:12;17.20;99.90
13673;DHT22;6909;52.202;9.876;2022-10-28T04:46:41;17.10;99.90
13673;DHT22;6909;52.202;9.876;2022-10-28T04:49:08;17.10;99.90
13673;DHT22;6909;52.202;9.876;2022-10-28T04:51:35;17.00;99.90
13673;DHT22;6909;52.202;9.876;2022-10-28T04:54:02;16.90;99.90
13673;DHT22;6909;52.202;9.876;2022-10-28T04:56:29;16.80;99.90
13673;DHT22;6909;52.202;9.876;2022-10-28T04:58:57;16.80;99.90
13673;DHT22;6909;52.202;9.876;2022-10-28T05:01:24;16.90;99.90
13673;DHT22;6909;52.202;9.876;2022-10-28T05:03:52;17.00;99.90
13673;DHT22;6909;52.202;9.876;2022-10-28T05:06:19;17.00;99.90
13673;DHT22;6909;52.202;9.876;2022-10-28T05:08:45;17.10;99.90
13673;DHT22;6909;52.202;9.876;2022-10-28T05:11:12;17.20;99.90
13673;DHT22;6909;52.202;9.876;2022-10-28T05:13:39;17.20;99.90
13673;DHT22;6909;52.202;9.876;2022-10-28T05:16:07;17.20;99.90
13673;DHT22;6909;52.202;9.876;2022-10-28T05:18:33;17.10;99.90
13673;DHT22;6909;52.202;9.876;2022-10-28T05:21:01;17.00;99.90
13673;DHT22;6909;52.202;9.876;2022-10-28T05:23:28;17.00;99.90
13673;DHT22;6909;52.202;9.876;2022-10-28T05:25:55;17.00;99.90
13673;DHT22;6909;52.202;9.876;2022-10-28T05:28:21;17.10;99.90
13673;DHT22;6909;52.202;9.876;2022-10-28T05:30:48;17.10;99.90
13673;DHT22;6909;52.202;9.876;2022-10-28T05:33:18;17.10;99.90
13673;DHT22;6909;52.202;9.876;2022-10-28T05:35:45;17.00;99.90
13673;DHT22;6909;52.202;9.876;2022-10-28T05:38:13;17.10;99.90
13673;DHT22;6909;52.202;9.876;2022-10-28T05:40:40;17.10;99.90
13673;DHT22;6909;52.202;9.876;2022-10-28T05:43:08;17.10;99.90
13673;DHT22;6909;52.202;9.876;2022-10-28T05:45:35;17.00;99.90
13673;DHT22;6909;52.202;9.876;2022-10-28T05:48:02;16.90;99.90
13673;DHT22;6909;52.202;9.876;2022-10-28T05:50:29;16.80;99.90
13673;DHT22;6909;52.202;9.876;2022-10-28T05:52:56;16.80;99.90
13673;DHT22;6909;52.202;9.876;2022-10-28T05:55:26;16.80;99.90
13673;DHT22;6909;52.202;9.876;2022-10-28T05:57:54;16.90;99.90
13673;DHT22;6909;52.202;9.876;2022-10-28T06:00:24;17.00;99.90
13673;DHT22;6909;52.202;9.876;2022-10-28T06:02:51;17.00;99.90
13673;DHT22;6909;52.202;9.876;2022-10-28T06:05:18;16.90;99.90
13673;DHT22;6909;52.202;9.876;2022-10-28T06:07:44;17.00;99.90
13673;DHT22;6909;52.202;9.876;2022-10-28T06:10:11;16.90;99.90
13673;DHT22;6909;52.202;9.876;2022-10-28T06:12:39;16.90;99.90
13673;DHT22;6909;52.202;9.876;2022-10-28T06:15:07;17.10;99.90
13673;DHT22;6909;52.202;9.876;2022-10-28T06:17:34;17.10;99.90
13673;DHT22;6909;52.202;9.876;2022-10-28T06:20:01;17.10;99.90
13673;DHT22;6909;52.202;9.876;2022-10-28T06:22:28;17.00;99.90
13673;DHT22;6909;52.202;9.876;2022-10-28T06:24:55;17.10;99.90
13673;DHT22;6909;52.202;9.876;2022-10-28T06:27:22;17.20;99.90
13673;DHT22;6909;52.202;9.876;2022-10-28T06:29:50;17.10;99.90
13673;DHT22;6909;52.202;9.876;2022-10-28T06:32:16;17.00;99.90
13673;DHT22;6909;52.202;9.876;2022-10-28T06:34:43;16.90;99.90
13673;DHT22;6909;52.202;9.876;2022-10-28T06:37:10;17.00;99.90
13673;DHT22;6909;52.202;9.876;2022-10-28T06:39:38;16.90;99.90
13673;DHT22;6909;52.202;9.876;2022-10-28T06:42:05;16.80;99.90
13673;DHT22;6909;52.202;9.876;2022-10-28T06:44:31;16.80;99.90
13673;DHT22;6909;52.202;9.876;2022-10-28T06:46:59;16.90;99.90
13673;DHT22;6909;52.202;9.876;2022-10-28T06:49:26;16.90;99.90
13673;DHT22;6909;52.202;9.876;2022-10-28T06:51:53;17.00;99.90
13673;DHT22;6909;52.202;9.876;2022-10-28T06:54:22;17.20;99.90
13673;DHT22;6909;52.202;9.876;2022-10-28T06:56:48;17.20;99.90
13673;DHT22;6909;52.202;9.876;2022-10-28T06:59:15;17.20;99.90
13673;DHT22;6909;52.202;9.876;2022-10-28T07:01:42;17.20;99.90
13673;DHT22;6909;52.202;9.876;2022-10-28T07:04:11;17.30;99.90
13673;DHT22;6909;52.202;9.876;2022-10-28T07:06:38;17.80;99.90
13673;DHT22;6909;52.202;9.876;2022-10-28T07:09:05;18.50;99.90
13673;DHT22;6909;52.202;9.876;2022-10-28T07:11:34;19.20;99.90
13673;DHT22;6909;52.202;9.876;2022-10-28T07:14:01;19.70;99.90
13673;DHT22;6909;52.202;9.876;2022-10-28T07:16:27;19.60;99.90
13673;DHT22;6909;52.202;9.876;2022-10-28T07:18:54;19.20;99.90
13673;DHT22;6909;52.202;9.876;2022-10-28T07:21:22;19.00;99.90
13673;DHT22;6909;52.202;9.876;2022-10-28T07:23:53;18.90;99.90
13673;DHT22;6909;52.202;9.876;2022-10-28T07:26:21;18.80;99.90
13673;DHT22;6909;52.202;9.876;2022-10-28T07:28:48;18.80;99.90
13673;DHT22;6909;52.202;9.876;2022-10-28T07:31:15;18.90;99.90
13673;DHT22;6909;52.202;9.876;2022-10-28T07:33:41;19.50;99.90
13673;DHT22;6909;52.202;9.876;2022-10-28T07:36:09;19.80;99.90
13673;DHT22;6909;52.202;9.876;2022-10-28T07:38:37;20.10;99.90
13673;DHT22;6909;52.202;9.876;2022-10-28T07:41:04;20.40;99.90
13673;DHT22;6909;52.202;9.876;2022-10-28T07:43:34;20.80;99.90
13673;DHT22;6909;52.202;9.876;2022-10-28T07:46:01;21.10;99.90
13673;DHT22;6909;52.202;9.876;2022-10-28T07:48:28;21.30;99.90
13673;DHT22;6909;52.202;9.876;2022-10-28T07:50:55;21.00;99.90
13673;DHT22;6909;52.202;9.876;2022-10-28T07:53:21;21.10;99.90
13673;DHT22;6909;52.202;9.876;2022-10-28T07:55:55;21.20;99.90
13673;DHT22;6909;52.202;9.876;2022-10-28T07:58:22;21.20;99.90
13673;DHT22;6909;52.202;9.876;2022-10-28T08:00:48;21.20;99.90
13673;DHT22;6909;52.202;9.876;2022-10-28T08:03:15;21.40;99.90
13673;DHT22;6909;52.202;9.876;2022-10-28T08:05:42;21.50;99.90
13673;DHT22;6909;52.202;9.876;2022-10-28T08:08:12;21.60;99.90
13673;DHT22;6909;52.202;9.876;2022-10-28T08:10:42;21.70;99.90
13673;DHT22;6909;52.202;9.876;2022-10-28T08:13:10;21.70;99.90
13673;DHT22;6909;52.202;9.876;2022-10-28T08:15:37;21.90;99.90
13673;DHT22;6909;52.202;9.876;2022-10-28T08:18:04;21.70;99.90
13673;DHT22;6909;52.202;9.876;2022-10-28T08:20:30;21.30;99.90
13673;DHT22;6909;52.202;9.876;2022-10-28T08:22:57;21.20;99.90
13673;DHT22;6909;52.202;9.876;2022-10-28T08:25:24;20.90;99.90
13673;DHT22;6909;52.202;9.876;2022-10-28T08:27:51;20.70;99.90
13673;DHT22;6909;52.202;9.876;2022-10-28T08:30:19;20.60;99.90
13673;DHT22;6909;52.202;9.876;2022-10-28T08:32:46;20.50;99.90
13673;DHT22;6909;52.202;9.876;2022-10-28T08:35:12;20.50;99.90
13673;DHT22;6909;52.202;9.876;2022-10-28T08:37:39;20.40;99.90
13673;DHT22;6909;52.202;9.876;2022-10-28T08:40:11;20.40;99.90
13673;DHT22;6909;52.202;9.876;2022-10-28T08:42:45;20.40;99.90
13673;DHT22;6909;52.202;9.876;2022-10-28T08:45:33;20.50;99.90
13673;DHT22;6909;52.202;9.876;2022-10-28T08:48:11;20.70;99.90
13673;DHT22;6909;52.202;9.876;2022-10-28T08:50:48;20.80;99.90
13673;DHT22;6909;52.202;9.876;2022-10-28T08:53:20;20.80;99.90
13673;DHT22;6909;52.202;9.876;2022-10-28T08:55:51;20.70;99.90
13673;DHT22;6909;52.202;9.876;2022-10-28T08:58:21;20.80;99.90
13673;DHT22;6909;52.202;9.876;2022-10-28T09:00:52;20.90;99.90
13673;DHT22;6909;52.202;9.876;2022-10-28T09:03:21;21.00;99.90
13673;DHT22;6909;52.202;9.876;2022-10-28T09:05:53;21.00;99.90
13673;DHT22;6909;52.202;9.876;2022-10-28T09:08:22;21.00;99.90
13673;DHT22;6909;52.202;9.876;2022-10-28T09:11:02;20.90;99.90
13673;DHT22;6909;52.202;9.876;2022-10-28T09:13:40;20.80;99.90
13673;DHT22;6909;52.202;9.876;2022-10-28T09:16:16;20.70;99.90
13673;DHT22;6909;52.202;9.876;2022-10-28T09:18:51;20.70;99.90
13673;DHT22;6909;52.202;9.876;2022-10-28T09:21:21;20.70;99.90
13673;DHT22;6909;52.202;9.876;2022-10-28T09:23:54;21.00;99.90
13673;DHT22;6909;52.202;9.876;2022-10-28T09:26:30;21.20;99.90
13673;DHT22;6909;52.202;9.876;2022-10-28T09:29:05;21.40;99.90
13673;DHT22;6909;52.202;9.876;2022-10-28T09:31:38;21.40;99.90
13673;DHT22;6909;52.202;9.876;2022-10-28T09:34:19;21.50;99.90
13673;DHT22;6909;52.202;9.876;2022-10-28T09:36:51;21.40;99.90
13673;DHT22;6909;52.202;9.876;2022-10-28T09:39:23;21.50;99.90
13673;DHT22;6909;52.202;9.876;2022-10-28T09:41:52;21.70;99.90
13673;DHT22;6909;52.202;9.876;2022-10-28T09:44:23;21.80;99.90
13673;DHT22;6909;52.202;9.876;2022-10-28T09:46:54;22.00;99.90
13673;DHT22;6909;52.202;9.876;2022-10-28T09:49:25;22.10;99.90
13673;DHT22;6909;52.202;9.876;2022-10-28T09:51:57;22.20;99.90
13673;DHT22;6909;52.202;9.876;2022-10-28T09:54:31;22.30;99.90
13673;DHT22;6909;52.202;9.876;2022-10-28T09:56:59;22.40;99.90
13673;DHT22;6909;52.202;9.876;2022-10-28T09:59:26;22.40;99.90
13673;DHT22;6909;52.202;9.876;2022-10-28T10:01:54;22.50;99.90
13673;DHT22;6909;52.202;9.876;2022-10-28T10:04:23;22.50;99.90
13673;DHT22;6909;52.202;9.876;2022-10-28T10:06:53;22.50;99.90
13673;DHT22;6909;52.202;9.876;2022-10-28T10:09:23;22.50;99.90
13673;DHT22;6909;52.202;9.876;2022-10-28T10:11:53;22.60;99.90
13673;DHT22;6909;52.202;9.876;2022-10-28T10:14:24;22.50;99.90
13673;DHT22;6909;52.202;9.876;2022-10-28T10:16:55;22.60;99.90
13673;DHT22;6909;52.202;9.876;2022-10-28T10:19:22;22.50;99.90
13673;DHT22;6909;52.202;9.876;2022-10-28T10:21:51;22.60;99.90
13673;DHT22;6909;52.202;9.876;2022-10-28T10:24:28;22.50;99.90
13673;DHT22;6909;52.202;9.876;2022-10-28T10:26:57;22.60;99.90
13673;DHT22;6909;52.202;9.876;2022-10-28T10:29:25;22.50;99.90
13673;DHT22;6909;52.202;9.876;2022-10-28T10:32:15;22.50;99.90
13673;DHT22;6909;52.202;9.876;2022-10-28T10:34:45;22.40;99.90
13673;DHT22;6909;52.202;9.876;2022-10-28T10:37:19;22.50;99.90
13673;DHT22;6909;52.202;9.876;2022-10-28T10:40:03;22.50;99.90
13673;DHT22;6909;52.202;9.876;2022-10-28T10:42:30;22.60;99.90
13673;DHT22;6909;52.202;9.876;2022-10-28T10:45:00;22.70;99.90
13673;DHT22;6909;52.202;9.876;2022-10-28T10:47:29;22.70;99.90
13673;DHT22;6909;52.202;9.876;2022-10-28T10:50:18;22.80;99.90
13673;DHT22;6909;52.202;9.876;2022-10-28T10:52:54;22.80;99.90
13673;DHT22;6909;52.202;9.876;2022-10-28T10:55:28;22.90;99.90
13673;DHT22;6909;52.202;9.876;2022-10-28T10:57:56;22.90;99.90
13673;DHT22;6909;52.202;9.876;2022-10-28T11:00:29;22.90;99.90
13673;DHT22;6909;52.202;9.876;2022-10-28T11:02:58;22.90;99.90
13673;DHT22;6909;52.202;9.876;2022-10-28T11:05:27;22.90;99.90
13673;DHT22;6909;52.202;9.876;2022-10-28T11:07:54;22.90;99.90
13673;DHT22;6909;52.202;9.876;2022-10-28T11:10:24;22.90;99.90
13673;DHT22;6909;52.202;9.876;2022-10-28T11:12:53;22.90;99.90
13673;DHT22;6909;52.202;9.876;2022-10-28T11:15:23;22.90;99.90
13673;DHT22;6909;52.202;9.876;2022-10-28T11:17:55;23.00;99.90
13673;DHT22;6909;52.202;9.876;2022-10-28T11:20:25;23.00;99.90
13673;DHT22;6909;52.202;9.876;2022-10-28T11:23:02;23.00;99.90
13673;DHT22;6909;52.202;9.876;2022-10-28T11:25:34;23.10;99.90
13673;DHT22;6909;52.202;9.876;2022-10-28T11:28:28;23.20;99.90
13673;DHT22;6909;52.202;9.876;2022-10-28T11:31:10;23.20;99.90
13673;DHT22;6909;52.202;9.876;2022-10-28T11:33:46;23.30;99.90
13673;DHT22;6909;52.202;9.876;2022-10-28T11:36:22;23.40;99.90
13673;DHT22;6909;52.202;9.876;2022-10-28T11:39:18;23.40;99.90
13673;DHT22;6909;52.202;9.876;2022-10-28T11:41:53;23.40;99.90
13673;DHT22;6909;52.202;9.876;2022-10-28T11:44:33;23.30;99.90
13673;DHT22;6909;52.202;9.876;2022-10-28T11:47:18;23.30;99.90
13673;DHT22;6909;52.202;9.876;2022-10-28T11:50:12;23.40;99.90
13673;DHT22;6909;52.202;9.876;2022-10-28T11:53:00;23.40;99.90
13673;DHT22;6909;52.202;9.876;2022-10-28T11:55:33;23.40;99.90
13673;DHT22;6909;52.202;9.876;2022-10-28T11:58:11;23.50;99.90
13673;DHT22;6909;52.202;9.876;2022-10-28T12:00:56;23.50;99.90
13673;DHT22;6909;52.202;9.876;2022-10-28T12:03:36;23.40;99.90
13673;DHT22;6909;52.202;9.876;2022-10-28T12:06:14;23.40;99.90
13673;DHT22;6909;52.202;9.876;2022-10-28T12:08:58;23.40;99.90
13673;DHT22;6909;52.202;9.876;2022-10-28T12:11:35;23.40;99.90
13673;DHT22;6909;52.202;9.876;2022-10-28T12:14:12;23.30;99.90
13673;DHT22;6909;52.202;9.876;2022-10-28T12:16:46;23.30;99.90
13673;DHT22;6909;52.202;9.876;2022-10-28T12:19:17;23.30;99.90
13673;DHT22;6909;52.202;9.876;2022-10-28T12:21:57;23.20;99.90
13673;DHT22;6909;52.202;9.876;2022-10-28T12:24:30;23.20;99.90
13673;DHT22;6909;52.202;9.876;2022-10-28T12:27:03;23.20;99.90
13673;DHT22;6909;52.202;9.876;2022-10-28T12:29:37;23.20;99.90
13673;DHT22;6909;52.202;9.876;2022-10-28T12:32:08;23.10;99.90
13673;DHT22;6909;52.202;9.876;2022-10-28T12:34:40;23.20;99.90
13673;DHT22;6909;52.202;9.876;2022-10-28T12:37:12;23.10;99.90
13673;DHT22;6909;52.202;9.876;2022-10-28T12:39:44;23.00;99.90
13673;DHT22;6909;52.202;9.876;2022-10-28T12:42:17;23.00;99.90
13673;DHT22;6909;52.202;9.876;2022-10-28T12:44:47;22.90;99.90
13673;DHT22;6909;52.202;9.876;2022-10-28T12:47:20;22.90;99.90
13673;DHT22;6909;52.202;9.876;2022-10-28T12:49:53;22.80;99.90
13673;DHT22;6909;52.202;9.876;2022-10-28T12:52:32;22.80;99.90
13673;DHT22;6909;52.202;9.876;2022-10-28T12:55:19;22.80;99.90
13673;DHT22;6909;52.202;9.876;2022-10-28T12:57:53;22.80;99.90
13673;DHT22;6909;52.202;9.876;2022-10-28T13:00:25;22.80;99.90
13673;DHT22;6909;52.202;9.876;2022-10-28T13:02:58;22.80;99.90
13673;DHT22;6909;52.202;9.876;2022-10-28T13:05:30;22.90;99.90
13673;DHT22;6909;52.202;9.876;2022-10-28T13:14:09;22.80;99.90
13673;DHT22;6909;52.202;9.876;2022-10-28T13:16:52;22.90;99.90
13673;DHT22;6909;52.202;9.876;2022-10-28T13:19:35;22.90;99.90
13673;DHT22;6909;52.202;9.876;2022-10-28T13:22:26;23.00;99.90
13673;DHT22;6909;52.202;9.876;2022-10-28T13:25:00;23.00;99.90
13673;DHT22;6909;52.202;9.876;2022-10-28T13:27:30;23.00;99.90
13673;DHT22;6909;52.202;9.876;2022-10-28T13:29:59;22.90;99.90
13673;DHT22;6909;52.202;9.876;2022-10-28T13:32:33;22.80;99.90
13673;DHT22;6909;52.202;9.876;2022-10-28T13:35:10;22.70;99.90
13673;DHT22;6909;52.202;9.876;2022-10-28T13:37:38;22.60;99.90
13673;DHT22;6909;52.202;9.876;2022-10-28T13:40:09;22.50;99.90
13673;DHT22;6909;52.202;9.876;2022-10-28T13:42:47;22.40;99.90
13673;DHT22;6909;52.202;9.876;2022-10-28T13:45:43;22.30;99.90
13673;DHT22;6909;52.202;9.876;2022-10-28T13:48:30;22.30;99.90
13673;DHT22;6909;52.202;9.876;2022-10-28T13:54:02;22.20;99.90
13673;DHT22;6909;52.202;9.876;2022-10-28T13:56:36;22.10;99.90
13673;DHT22;6909;52.202;9.876;2022-10-28T14:02:13;21.90;99.90
13673;DHT22;6909;52.202;9.876;2022-10-28T14:04:42;21.90;99.90
13673;DHT22;6909;52.202;9.876;2022-10-28T14:07:21;21.80;99.90
13673;DHT22;6909;52.202;9.876;2022-10-28T14:09:53;21.80;99.90
13673;DHT22;6909;52.202;9.876;2022-10-28T14:12:23;21.70;99.90
13673;DHT22;6909;52.202;9.876;2022-10-28T14:15:01;21.70;99.90
13673;DHT22;6909;52.202;9.876;2022-10-28T14:17:34;21.60;99.90
13673;DHT22;6909;52.202;9.876;2022-10-28T14:20:03;21.50;99.90
13673;DHT22;6909;52.202;9.876;2022-10-28T14:22:33;21.30;99.90
13673;DHT22;6909;52.202;9.876;2022-10-28T14:25:00;21.20;99.90
13673;DHT22;6909;52.202;9.876;2022-10-28T14:27:39;21.10;99.90
13673;DHT22;6909;52.202;9.876;2022-10-28T14:30:22;21.10;99.90
13673;DHT22;6909;52.202;9.876;2022-10-28T14:36:12;20.90;99.90
13673;DHT22;6909;52.202;9.876;2022-10-28T14:42:14;20.60;99.90
13673;DHT22;6909;52.202;9.876;2022-10-28T14:44:59;20.50;99.90
13673;DHT22;6909;52.202;9.876;2022-10-28T14:47:47;20.40;99.90
13673;DHT22;6909;52.202;9.876;2022-10-28T14:50:22;20.40;99.90
13673;DHT22;6909;52.202;9.876;2022-10-28T14:52:50;20.20;99.90
13673;DHT22;6909;52.202;9.876;2022-10-28T14:55:21;20.10;99.90
13673;DHT22;6909;52.202;9.876;2022-10-28T14:57:49;20.10;99.90
13673;DHT22;6909;52.202;9.876;2022-10-28T15:00:18;20.10;99.90
13673;DHT22;6909;52.202;9.876;2022-10-28T15:02:47;19.90;99.90
13673;DHT22;6909;52.202;9.876;2022-10-28T15:05:17;19.80;99.90
13673;DHT22;6909;52.202;9.876;2022-10-28T15:07:46;19.70;99.90
13673;DHT22;6909;52.202;9.876;2022-10-28T15:10:14;19.70;99.90
13673;DHT22;6909;52.202;9.876;2022-10-28T15:12:42;19.80;99.90
13673;DHT22;6909;52.202;9.876;2022-10-28T15:15:17;19.90;99.90
13673;DHT22;6909;52.202;9.876;2022-10-28T15:17:44;19.90;99.90
13673;DHT22;6909;52.202;9.876;2022-10-28T15:20:19;20.00;99.90
13673;DHT22;6909;52.202;9.876;2022-10-28T15:22:46;20.00;99.90
13673;DHT22;6909;52.202;9.876;2022-10-28T15:25:15;20.00;99.90
13673;DHT22;6909;52.202;9.876;2022-10-28T15:27:44;20.10;99.90
13673;DHT22;6909;52.202;9.876;2022-10-28T15:30:13;20.10;99.90
13673;DHT22;6909;52.202;9.876;2022-10-28T15:32:40;20.10;99.90
13673;DHT22;6909;52.202;9.876;2022-10-28T15:35:37;20.10;99.90
13673;DHT22;6909;52.202;9.876;2022-10-28T15:38:24;20.10;99.90
13673;DHT22;6909;52.202;9.876;2022-10-28T15:40:51;19.90;99.90
13673;DHT22;6909;52.202;9.876;2022-10-28T15:43:19;19.80;99.90
13673;DHT22;6909;52.202;9.876;2022-10-28T15:45:46;19.70;99.90
13673;DHT22;6909;52.202;9.876;2022-10-28T15:48:18;19.70;99.90
13673;DHT22;6909;52.202;9.876;2022-10-28T15:51:09;19.60;99.90
13673;DHT22;6909;52.202;9.876;2022-10-28T15:53:39;19.50;99.90
13673;DHT22;6909;52.202;9.876;2022-10-28T15:56:17;19.30;99.90
13673;DHT22;6909;52.202;9.876;2022-10-28T15:58:46;19.30;99.90
13673;DHT22;6909;52.202;9.876;2022-10-28T16:01:28;19.20;99.90
13673;DHT22;6909;52.202;9.876;2022-10-28T16:03:56;19.00;99.90
13673;DHT22;6909;52.202;9.876;2022-10-28T16:06:27;18.90;99.90
13673;DHT22;6909;52.202;9.876;2022-10-28T16:09:14;19.00;99.90
13673;DHT22;6909;52.202;9.876;2022-10-28T16:11:45;19.20;99.90
13673;DHT22;6909;52.202;9.876;2022-10-28T16:14:29;19.00;99.90
13673;DHT22;6909;52.202;9.876;2022-10-28T16:17:16;18.90;99.90
13673;DHT22;6909;52.202;9.876;2022-10-28T16:19:47;18.70;99.90
13673;DHT22;6909;52.202;9.876;2022-10-28T16:22:16;18.50;99.90
13673;DHT22;6909;52.202;9.876;2022-10-28T16:24:44;18.50;99.90
13673;DHT22;6909;52.202;9.876;2022-10-28T16:27:21;18.40;99.90
13673;DHT22;6909;52.202;9.876;2022-10-28T16:29:48;18.50;99.90
13673;DHT22;6909;52.202;9.876;2022-10-28T16:32:17;18.60;99.90
13673;DHT22;6909;52.202;9.876;2022-10-28T16:34:45;18.40;99.90